sensor_id;sensor_type;location;lat;lon;timestamp;pressure;altitude;pressure_sealevel;temperature;humidity
64343;BME280;50675;53.530;-6.312;2023-06-22T00:49:25;101252.38;;;19.41;53.30
64343;BME280;50675;53.530;-6.312;2023-06-22T01:46:59;101280.75;;;18.34;53.96
64343;BME280;50675;53.530;-6.312;2023-06-22T01:54:35;101287.41;;;18.23;54.00
64343;BME280;50675;53.530;-6.312;2023-06-22T03:04:21;101341.69;;;18.84;54.75
64343;BME280;50675;53.530;-6.312;2023-06-22T05:24:31;101374.31;;;18.31;56.32
64343;BME280;50675;53.530;-6.312;2023-06-22T05:26:57;101377.56;;;18.39;56.12
64343;BME280;50675;53.530;-6.312;2023-06-22T05:29:23;101378.09;;;18.41;56.31
64343;BME280;50675;53.530;-6.312;2023-06-22T05:31:49;101380.81;;;18.46;55.86
64343;BME280;50675;53.530;-6.312;2023-06-22T05:34:15;101380.78;;;18.51;56.04
64343;BME280;50675;53.530;-6.312;2023-06-22T05:36:40;101379.41;;;18.53;56.35
64343;BME280;50675;53.530;-6.312;2023-06-22T05:39:13;101383.75;;;18.59;56.19
64343;BME280;50675;53.530;-6.312;2023-06-22T05:41:39;101381.81;;;18.65;56.42
64343;BME280;50675;53.530;-6.312;2023-06-22T05:44:05;101390.81;;;18.70;56.10
64343;BME280;50675;53.530;-6.312;2023-06-22T05:46:31;101387.78;;;18.72;56.17
64343;BME280;50675;53.530;-6.312;2023-06-22T05:48:57;101383.94;;;18.73;55.87
64343;BME280;50675;53.530;-6.312;2023-06-22T05:51:24;101385.00;;;18.77;56.14
64343;BME280;50675;53.530;-6.312;2023-06-22T05:53:50;101374.31;;;18.81;56.03
64343;BME280;50675;53.530;-6.312;2023-06-22T05:56:16;101380.25;;;18.88;56.23
64343;BME280;50675;53.530;-6.312;2023-06-22T05:58:42;101379.88;;;19.04;56.07
64343;BME280;50675;53.530;-6.312;2023-06-22T06:01:08;101380.56;;;19.49;56.12
64343;BME280;50675;53.530;-6.312;2023-06-22T06:03:34;101370.19;;;19.93;55.89
64343;BME280;50675;53.530;-6.312;2023-06-22T06:06:07;101384.59;;;20.46;55.98
64343;BME280;50675;53.530;-6.312;2023-06-22T06:08:33;101383.00;;;20.96;55.67
64343;BME280;50675;53.530;-6.312;2023-06-22T06:10:58;101376.50;;;21.38;55.72
64343;BME280;50675;53.530;-6.312;2023-06-22T06:13:24;101369.84;;;21.86;55.65
64343;BME280;50675;53.530;-6.312;2023-06-22T06:15:50;101385.00;;;22.38;55.13
64343;BME280;50675;53.530;-6.312;2023-06-22T06:18:17;101383.88;;;22.75;54.82
64343;BME280;50675;53.530;-6.312;2023-06-22T06:20:43;101374.94;;;23.14;54.67
64343;BME280;50675;53.530;-6.312;2023-06-22T06:23:08;101374.69;;;23.54;54.70
64343;BME280;50675;53.530;-6.312;2023-06-22T06:25:34;101383.13;;;23.97;54.33
64343;BME280;50675;53.530;-6.312;2023-06-22T06:28:00;101380.94;;;24.25;53.94
64343;BME280;50675;53.530;-6.312;2023-06-22T06:30:26;101386.66;;;24.55;54.00
64343;BME280;50675;53.530;-6.312;2023-06-22T06:32:52;101385.38;;;24.78;53.50
64343;BME280;50675;53.530;-6.312;2023-06-22T06:35:20;101381.13;;;25.06;53.51
64343;BME280;50675;53.530;-6.312;2023-06-22T06:37:49;101372.16;;;25.26;52.93
64343;BME280;50675;53.530;-6.312;2023-06-22T06:40:17;101389.00;;;25.59;52.54
64343;BME280;50675;53.530;-6.312;2023-06-22T06:42:45;101383.19;;;25.82;52.63
64343;BME280;50675;53.530;-6.312;2023-06-22T06:45:12;101377.09;;;25.97;52.49
64343;BME280;50675;53.530;-6.312;2023-06-22T06:47:39;101389.81;;;26.19;52.04
64343;BME280;50675;53.530;-6.312;2023-06-22T06:50:07;101386.25;;;26.47;52.13
64343;BME280;50675;53.530;-6.312;2023-06-22T06:52:34;101384.75;;;26.71;51.72
64343;BME280;50675;53.530;-6.312;2023-06-22T06:55:00;101388.25;;;27.01;51.54
64343;BME280;50675;53.530;-6.312;2023-06-22T06:57:26;101391.31;;;27.20;51.21
64343;BME280;50675;53.530;-6.312;2023-06-22T06:59:56;101400.19;;;27.46;51.07
64343;BME280;50675;53.530;-6.312;2023-06-22T07:02:22;101397.22;;;27.51;50.61
64343;BME280;50675;53.530;-6.312;2023-06-22T07:04:51;101397.00;;;27.68;49.95
64343;BME280;50675;53.530;-6.312;2023-06-22T07:07:17;101392.28;;;27.69;50.18
64343;BME280;50675;53.530;-6.312;2023-06-22T07:09:43;101393.78;;;27.78;49.26
64343;BME280;50675;53.530;-6.312;2023-06-22T07:12:09;101407.75;;;27.94;48.95
64343;BME280;50675;53.530;-6.312;2023-06-22T07:14:35;101394.22;;;28.05;48.87
64343;BME280;50675;53.530;-6.312;2023-06-22T07:17:01;101400.25;;;28.31;48.63
64343;BME280;50675;53.530;-6.312;2023-06-22T07:19:27;101396.41;;;28.48;48.34
64343;BME280;50675;53.530;-6.312;2023-06-22T07:21:54;101402.38;;;28.62;47.89
64343;BME280;50675;53.530;-6.312;2023-06-22T07:24:24;101394.84;;;28.62;47.58
64343;BME280;50675;53.530;-6.312;2023-06-22T07:26:55;101405.22;;;28.50;47.01
64343;BME280;50675;53.530;-6.312;2023-06-22T07:29:25;101409.03;;;28.33;46.68
64343;BME280;50675;53.530;-6.312;2023-06-22T07:31:57;101398.78;;;28.21;46.65
64343;BME280;50675;53.530;-6.312;2023-06-22T07:34:30;101406.75;;;28.35;46.41
64343;BME280;50675;53.530;-6.312;2023-06-22T07:36:58;101398.84;;;28.49;46.40
64343;BME280;50675;53.530;-6.312;2023-06-22T07:42:40;101403.28;;;28.78;45.58
64343;BME280;50675;53.530;-6.312;2023-06-22T07:45:07;101406.88;;;28.66;45.02
64343;BME280;50675;53.530;-6.312;2023-06-22T07:47:36;101422.66;;;28.62;45.14
64343;BME280;50675;53.530;-6.312;2023-06-22T07:50:02;101416.03;;;28.67;44.90
64343;BME280;50675;53.530;-6.312;2023-06-22T07:52:29;101414.22;;;28.47;44.53
64343;BME280;50675;53.530;-6.312;2023-06-22T07:54:58;101413.66;;;28.53;44.46
64343;BME280;50675;53.530;-6.312;2023-06-22T07:57:24;101414.34;;;28.50;44.31
64343;BME280;50675;53.530;-6.312;2023-06-22T07:59:58;101409.47;;;28.59;44.14
64343;BME280;50675;53.530;-6.312;2023-06-22T08:02:24;101410.47;;;28.79;44.03
64343;BME280;50675;53.530;-6.312;2023-06-22T08:04:50;101408.94;;;28.82;43.80
64343;BME280;50675;53.530;-6.312;2023-06-22T08:07:16;101418.31;;;28.89;43.84
64343;BME280;50675;53.530;-6.312;2023-06-22T08:09:47;101412.50;;;28.94;43.35
64343;BME280;50675;53.530;-6.312;2023-06-22T08:12:16;101420.53;;;28.84;43.52
64343;BME280;50675;53.530;-6.312;2023-06-22T08:14:51;101418.47;;;28.68;43.24
64343;BME280;50675;53.530;-6.312;2023-06-22T08:17:23;101414.34;;;28.90;43.03
64343;BME280;50675;53.530;-6.312;2023-06-22T08:19:53;101401.75;;;28.81;42.67
64343;BME280;50675;53.530;-6.312;2023-06-22T08:22:22;101411.53;;;28.75;42.83
64343;BME280;50675;53.530;-6.312;2023-06-22T08:24:54;101424.38;;;28.79;42.66
64343;BME280;50675;53.530;-6.312;2023-06-22T08:27:28;101438.38;;;28.70;42.42
64343;BME280;50675;53.530;-6.312;2023-06-22T08:34:02;101434.88;;;28.34;41.99
64343;BME280;50675;53.530;-6.312;2023-06-22T08:37:00;101425.75;;;28.21;42.03
64343;BME280;50675;53.530;-6.312;2023-06-22T08:40:14;101423.38;;;27.87;41.93
64343;BME280;50675;53.530;-6.312;2023-06-22T08:43:25;101430.53;;;27.51;41.97
64343;BME280;50675;53.530;-6.312;2023-06-22T08:46:14;101407.44;;;27.38;42.01
64343;BME280;50675;53.530;-6.312;2023-06-22T08:49:31;101402.19;;;27.13;41.96
64343;BME280;50675;53.530;-6.312;2023-06-22T08:52:26;101418.22;;;27.07;42.50
64343;BME280;50675;53.530;-6.312;2023-06-22T08:55:03;101420.72;;;27.00;41.87
64343;BME280;50675;53.530;-6.312;2023-06-22T08:57:45;101403.28;;;26.58;42.35
64343;BME280;50675;53.530;-6.312;2023-06-22T09:00:12;101411.13;;;26.56;42.23
64343;BME280;50675;53.530;-6.312;2023-06-22T09:02:50;101417.63;;;26.60;41.86
64343;BME280;50675;53.530;-6.312;2023-06-22T09:05:32;101414.19;;;26.34;42.32
64343;BME280;50675;53.530;-6.312;2023-06-22T09:11:01;101429.09;;;26.50;42.19
64343;BME280;50675;53.530;-6.312;2023-06-22T09:13:50;101422.13;;;26.44;42.28
64343;BME280;50675;53.530;-6.312;2023-06-22T09:16:43;101413.38;;;26.33;42.31
64343;BME280;50675;53.530;-6.312;2023-06-22T09:19:35;101425.38;;;26.17;41.96
64343;BME280;50675;53.530;-6.312;2023-06-22T09:22:07;101423.78;;;26.07;42.29
64343;BME280;50675;53.530;-6.312;2023-06-22T09:24:53;101422.97;;;26.06;42.50
64343;BME280;50675;53.530;-6.312;2023-06-22T09:27:24;101427.88;;;26.01;41.94
64343;BME280;50675;53.530;-6.312;2023-06-22T09:30:00;101427.59;;;25.94;42.23
64343;BME280;50675;53.530;-6.312;2023-06-22T09:33:12;101421.63;;;25.83;42.40
64343;BME280;50675;53.530;-6.312;2023-06-22T09:35:55;101434.16;;;25.89;42.31
64343;BME280;50675;53.530;-6.312;2023-06-22T09:38:46;101414.47;;;25.82;42.25
64343;BME280;50675;53.530;-6.312;2023-06-22T09:41:35;101419.22;;;25.73;42.31
64343;BME280;50675;53.530;-6.312;2023-06-22T09:44:29;101423.56;;;25.83;42.40
64343;BME280;50675;53.530;-6.312;2023-06-22T09:47:06;101419.13;;;25.61;42.52
64343;BME280;50675;53.530;-6.312;2023-06-22T09:49:40;101413.22;;;25.54;42.58
64343;BME280;50675;53.530;-6.312;2023-06-22T09:52:15;101410.31;;;25.59;41.96
64343;BME280;50675;53.530;-6.312;2023-06-22T09:54:50;101416.31;;;25.52;42.27
64343;BME280;50675;53.530;-6.312;2023-06-22T09:57:38;101417.47;;;25.60;42.36
64343;BME280;50675;53.530;-6.312;2023-06-22T10:00:26;101439.63;;;25.60;42.09
64343;BME280;50675;53.530;-6.312;2023-06-22T10:06:04;101425.19;;;25.20;42.25
64343;BME280;50675;53.530;-6.312;2023-06-22T10:09:18;101428.44;;;25.22;42.48
64343;BME280;50675;53.530;-6.312;2023-06-22T10:12:06;101437.72;;;25.00;42.53
64343;BME280;50675;53.530;-6.312;2023-06-22T10:15:04;101429.13;;;25.02;42.45
64343;BME280;50675;53.530;-6.312;2023-06-22T10:17:35;101429.09;;;24.84;42.42
64343;BME280;50675;53.530;-6.312;2023-06-22T10:20:20;101436.91;;;24.91;42.57
64343;BME280;50675;53.530;-6.312;2023-06-22T10:23:00;101421.81;;;24.97;42.66
64343;BME280;50675;53.530;-6.312;2023-06-22T10:25:46;101427.34;;;24.89;42.72
64343;BME280;50675;53.530;-6.312;2023-06-22T10:28:44;101439.16;;;24.80;42.51
64343;BME280;50675;53.530;-6.312;2023-06-22T10:31:15;101430.56;;;24.82;42.64
64343;BME280;50675;53.530;-6.312;2023-06-22T10:34:14;101439.34;;;24.84;43.15
64343;BME280;50675;53.530;-6.312;2023-06-22T10:37:23;101425.03;;;24.91;43.21
64343;BME280;50675;53.530;-6.312;2023-06-22T10:40:13;101433.03;;;24.92;42.98
64343;BME280;50675;53.530;-6.312;2023-06-22T10:43:08;101427.31;;;25.14;43.46
64343;BME280;50675;53.530;-6.312;2023-06-22T10:45:46;101432.16;;;25.35;43.51
64343;BME280;50675;53.530;-6.312;2023-06-22T10:49:06;101426.44;;;25.48;43.07
64343;BME280;50675;53.530;-6.312;2023-06-22T10:55:25;101424.56;;;25.78;43.35
64343;BME280;50675;53.530;-6.312;2023-06-22T10:58:11;101426.38;;;25.74;43.66
64343;BME280;50675;53.530;-6.312;2023-06-22T11:00:57;101416.81;;;26.01;43.49
64343;BME280;50675;53.530;-6.312;2023-06-22T11:03:37;101430.78;;;26.04;43.12
64343;BME280;50675;53.530;-6.312;2023-06-22T11:06:20;101425.25;;;26.04;43.09
64343;BME280;50675;53.530;-6.312;2023-06-22T11:09:04;101426.78;;;25.93;43.14
64343;BME280;50675;53.530;-6.312;2023-06-22T11:11:35;101423.84;;;25.98;43.54
64343;BME280;50675;53.530;-6.312;2023-06-22T11:14:12;101433.09;;;26.02;43.49
64343;BME280;50675;53.530;-6.312;2023-06-22T11:16:56;101436.63;;;26.11;43.08
64343;BME280;50675;53.530;-6.312;2023-06-22T11:19:44;101437.78;;;26.10;43.55
64343;BME280;50675;53.530;-6.312;2023-06-22T11:22:20;101425.13;;;26.01;43.47
64343;BME280;50675;53.530;-6.312;2023-06-22T11:24:54;101434.69;;;26.12;43.03
64343;BME280;50675;53.530;-6.312;2023-06-22T11:27:48;101432.59;;;26.00;43.05
64343;BME280;50675;53.530;-6.312;2023-06-22T11:30:16;101431.16;;;26.03;43.12
64343;BME280;50675;53.530;-6.312;2023-06-22T11:32:50;101439.81;;;25.93;43.09
64343;BME280;50675;53.530;-6.312;2023-06-22T11:35:31;101429.50;;;26.02;42.95
64343;BME280;50675;53.530;-6.312;2023-06-22T11:38:23;101431.66;;;25.96;43.46
64343;BME280;50675;53.530;-6.312;2023-06-22T11:41:00;101427.50;;;26.11;43.09
64343;BME280;50675;53.530;-6.312;2023-06-22T11:43:49;101429.84;;;26.00;43.56
64343;BME280;50675;53.530;-6.312;2023-06-22T11:46:26;101423.88;;;25.90;43.08
64343;BME280;50675;53.530;-6.312;2023-06-22T11:49:05;101439.19;;;25.87;42.66
64343;BME280;50675;53.530;-6.312;2023-06-22T11:51:43;101440.81;;;25.88;42.99
64343;BME280;50675;53.530;-6.312;2023-06-22T11:54:09;101428.63;;;25.81;43.34
64343;BME280;50675;53.530;-6.312;2023-06-22T11:56:37;101456.53;;;25.58;42.95
64343;BME280;50675;53.530;-6.312;2023-06-22T11:59:09;101443.16;;;25.52;42.95
64343;BME280;50675;53.530;-6.312;2023-06-22T12:01:42;101457.69;;;25.57;43.03
64343;BME280;50675;53.530;-6.312;2023-06-22T12:04:08;101445.00;;;25.39;43.12
64343;BME280;50675;53.530;-6.312;2023-06-22T12:06:46;101439.00;;;25.28;42.95
64343;BME280;50675;53.530;-6.312;2023-06-22T12:09:13;101453.16;;;25.36;42.72
64343;BME280;50675;53.530;-6.312;2023-06-22T12:11:52;101441.91;;;25.41;42.95
64343;BME280;50675;53.530;-6.312;2023-06-22T12:14:21;101447.59;;;25.44;43.03
64343;BME280;50675;53.530;-6.312;2023-06-22T12:16:52;101446.63;;;25.40;43.04
64343;BME280;50675;53.530;-6.312;2023-06-22T12:19:26;101455.41;;;25.34;43.07
64343;BME280;50675;53.530;-6.312;2023-06-22T12:21:54;101440.28;;;25.40;43.08
64343;BME280;50675;53.530;-6.312;2023-06-22T12:24:24;101445.84;;;25.22;43.47
64343;BME280;50675;53.530;-6.312;2023-06-22T12:27:02;101438.19;;;25.19;42.93
64343;BME280;50675;53.530;-6.312;2023-06-22T12:29:29;101463.75;;;25.16;43.48
64343;BME280;50675;53.530;-6.312;2023-06-22T12:32:00;101447.16;;;25.16;43.71
64343;BME280;50675;53.530;-6.312;2023-06-22T12:34:28;101443.06;;;25.31;43.58
64343;BME280;50675;53.530;-6.312;2023-06-22T12:37:07;101431.69;;;25.24;43.20
64343;BME280;50675;53.530;-6.312;2023-06-22T12:39:43;101459.81;;;25.35;43.63
64343;BME280;50675;53.530;-6.312;2023-06-22T12:42:17;101447.78;;;25.31;43.44
64343;BME280;50675;53.530;-6.312;2023-06-22T12:44:57;101447.47;;;25.15;43.23
64343;BME280;50675;53.530;-6.312;2023-06-22T12:47:25;101450.91;;;25.12;43.56
64343;BME280;50675;53.530;-6.312;2023-06-22T12:50:07;101447.00;;;25.21;43.67
64343;BME280;50675;53.530;-6.312;2023-06-22T12:52:46;101442.75;;;25.24;43.69
64343;BME280;50675;53.530;-6.312;2023-06-22T12:55:16;101452.81;;;25.28;43.60
64343;BME280;50675;53.530;-6.312;2023-06-22T12:57:45;101445.53;;;25.15;43.57
64343;BME280;50675;53.530;-6.312;2023-06-22T13:00:12;101448.78;;;25.26;43.88
64343;BME280;50675;53.530;-6.312;2023-06-22T13:02:40;101443.91;;;25.23;43.49
64343;BME280;50675;53.530;-6.312;2023-06-22T13:05:17;101440.97;;;25.19;43.49
64343;BME280;50675;53.530;-6.312;2023-06-22T13:07:46;101434.31;;;25.03;43.54
64343;BME280;50675;53.530;-6.312;2023-06-22T13:10:43;101429.28;;;24.97;43.52
64343;BME280;50675;53.530;-6.312;2023-06-22T13:13:09;101439.22;;;24.89;43.48
64343;BME280;50675;53.530;-6.312;2023-06-22T13:15:38;101450.88;;;24.86;44.05
64343;BME280;50675;53.530;-6.312;2023-06-22T13:18:10;101429.75;;;24.90;43.84
64343;BME280;50675;53.530;-6.312;2023-06-22T13:20:45;101440.66;;;24.87;43.90
64343;BME280;50675;53.530;-6.312;2023-06-22T13:23:23;101440.03;;;24.98;44.19
64343;BME280;50675;53.530;-6.312;2023-06-22T13:25:55;101434.28;;;24.77;44.21
64343;BME280;50675;53.530;-6.312;2023-06-22T13:28:20;101438.84;;;24.73;43.98
64343;BME280;50675;53.530;-6.312;2023-06-22T13:30:52;101429.59;;;24.61;44.36
64343;BME280;50675;53.530;-6.312;2023-06-22T13:33:34;101422.72;;;24.50;44.01
64343;BME280;50675;53.530;-6.312;2023-06-22T13:36:07;101425.19;;;24.51;44.39
64343;BME280;50675;53.530;-6.312;2023-06-22T13:38:41;101435.09;;;24.61;44.08
64343;BME280;50675;53.530;-6.312;2023-06-22T13:41:16;101423.91;;;24.66;44.25
64343;BME280;50675;53.530;-6.312;2023-06-22T13:43:42;101434.59;;;24.50;44.37
64343;BME280;50675;53.530;-6.312;2023-06-22T13:46:11;101426.13;;;24.38;44.20
64343;BME280;50675;53.530;-6.312;2023-06-22T13:48:42;101431.31;;;24.39;44.50
64343;BME280;50675;53.530;-6.312;2023-06-22T13:51:11;101417.88;;;24.47;44.62
64343;BME280;50675;53.530;-6.312;2023-06-22T13:53:54;101425.97;;;24.43;44.46
64343;BME280;50675;53.530;-6.312;2023-06-22T13:56:29;101417.72;;;24.52;44.66
64343;BME280;50675;53.530;-6.312;2023-06-22T13:59:16;101412.84;;;24.66;44.74
64343;BME280;50675;53.530;-6.312;2023-06-22T14:01:47;101426.97;;;24.73;44.56
64343;BME280;50675;53.530;-6.312;2023-06-22T14:04:13;101408.59;;;24.51;44.86
64343;BME280;50675;53.530;-6.312;2023-06-22T14:06:39;101427.44;;;24.66;44.48
64343;BME280;50675;53.530;-6.312;2023-06-22T14:09:05;101432.50;;;24.56;44.61
64343;BME280;50675;53.530;-6.312;2023-06-22T14:11:30;101427.94;;;24.77;44.54
64343;BME280;50675;53.530;-6.312;2023-06-22T14:13:56;101435.09;;;24.61;44.49
64343;BME280;50675;53.530;-6.312;2023-06-22T14:16:22;101434.44;;;24.64;44.15
64343;BME280;50675;53.530;-6.312;2023-06-22T14:18:47;101433.31;;;24.65;44.61
64343;BME280;50675;53.530;-6.312;2023-06-22T14:21:13;101421.44;;;24.56;44.52
64343;BME280;50675;53.530;-6.312;2023-06-22T14:23:39;101427.91;;;24.42;44.82
64343;BME280;50675;53.530;-6.312;2023-06-22T14:26:04;101430.72;;;24.68;44.41
64343;BME280;50675;53.530;-6.312;2023-06-22T14:28:30;101417.22;;;24.67;44.62
64343;BME280;50675;53.530;-6.312;2023-06-22T14:30:57;101427.28;;;24.63;44.91
64343;BME280;50675;53.530;-6.312;2023-06-22T14:33:22;101414.28;;;24.80;44.84
64343;BME280;50675;53.530;-6.312;2023-06-22T14:35:48;101427.28;;;24.54;44.98
64343;BME280;50675;53.530;-6.312;2023-06-22T14:38:14;101430.56;;;24.65;45.27
64343;BME280;50675;53.530;-6.312;2023-06-22T14:40:40;101428.09;;;24.72;45.52
64343;BME280;50675;53.530;-6.312;2023-06-22T14:43:05;101420.94;;;24.62;45.40
64343;BME280;50675;53.530;-6.312;2023-06-22T14:45:31;101438.13;;;24.33;45.91
64343;BME280;50675;53.530;-6.312;2023-06-22T14:47:57;101439.28;;;24.32;45.99
64343;BME280;50675;53.530;-6.312;2023-06-22T14:50:22;101428.38;;;24.27;46.01
64343;BME280;50675;53.530;-6.312;2023-06-22T14:52:48;101417.25;;;24.10;46.28
64343;BME280;50675;53.530;-6.312;2023-06-22T14:55:14;101424.06;;;24.04;46.18
64343;BME280;50675;53.530;-6.312;2023-06-22T14:57:40;101430.06;;;24.06;46.20
64343;BME280;50675;53.530;-6.312;2023-06-22T15:00:06;101429.50;;;24.26;46.36
64343;BME280;50675;53.530;-6.312;2023-06-22T15:02:32;101428.91;;;23.98;46.83
64343;BME280;50675;53.530;-6.312;2023-06-22T15:04:58;101420.63;;;23.90;46.72
64343;BME280;50675;53.530;-6.312;2023-06-22T15:07:24;101432.78;;;23.89;46.88
64343;BME280;50675;53.530;-6.312;2023-06-22T15:09:49;101439.84;;;23.73;47.09
64343;BME280;50675;53.530;-6.312;2023-06-22T15:12:15;101410.84;;;23.53;47.25
64343;BME280;50675;53.530;-6.312;2023-06-22T15:14:41;101427.84;;;23.77;47.38
64343;BME280;50675;53.530;-6.312;2023-06-22T15:17:08;101433.53;;;23.81;47.40
64343;BME280;50675;53.530;-6.312;2023-06-22T15:19:35;101429.28;;;23.66;47.43
64343;BME280;50675;53.530;-6.312;2023-06-22T15:22:05;101441.34;;;23.79;47.63
64343;BME280;50675;53.530;-6.312;2023-06-22T15:24:32;101436.69;;;23.96;47.91
64343;BME280;50675;53.530;-6.312;2023-06-22T15:26:58;101430.19;;;23.92;47.88
64343;BME280;50675;53.530;-6.312;2023-06-22T15:29:24;101419.59;;;23.86;47.79
64343;BME280;50675;53.530;-6.312;2023-06-22T15:31:53;101426.59;;;23.92;47.83
64343;BME280;50675;53.530;-6.312;2023-06-22T15:34:19;101414.44;;;23.93;47.70
64343;BME280;50675;53.530;-6.312;2023-06-22T15:36:45;101425.56;;;23.71;48.02
64343;BME280;50675;53.530;-6.312;2023-06-22T15:39:11;101416.00;;;23.77;48.09
64343;BME280;50675;53.530;-6.312;2023-06-22T15:41:39;101410.91;;;23.62;48.21
64343;BME280;50675;53.530;-6.312;2023-06-22T15:44:06;101411.41;;;23.64;48.43
64343;BME280;50675;53.530;-6.312;2023-06-22T15:46:32;101407.56;;;23.82;48.33
64343;BME280;50675;53.530;-6.312;2023-06-22T15:48:57;101397.41;;;23.51;48.64
64343;BME280;50675;53.530;-6.312;2023-06-22T15:51:23;101401.34;;;23.68;48.65
64343;BME280;50675;53.530;-6.312;2023-06-22T15:53:49;101383.66;;;23.69;48.78
64343;BME280;50675;53.530;-6.312;2023-06-22T15:56:15;101385.19;;;23.83;48.79
64343;BME280;50675;53.530;-6.312;2023-06-22T15:58:41;101400.53;;;23.67;48.56
64343;BME280;50675;53.530;-6.312;2023-06-22T16:01:07;101399.94;;;23.79;48.63
64343;BME280;50675;53.530;-6.312;2023-06-22T16:03:34;101398.81;;;23.80;49.03
64343;BME280;50675;53.530;-6.312;2023-06-22T16:06:00;101398.56;;;23.59;48.53
64343;BME280;50675;53.530;-6.312;2023-06-22T16:08:26;101394.28;;;23.84;48.70
64343;BME280;50675;53.530;-6.312;2023-06-22T16:10:56;101396.47;;;23.65;48.65
64343;BME280;50675;53.530;-6.312;2023-06-22T16:13:21;101392.25;;;23.67;48.72
64343;BME280;50675;53.530;-6.312;2023-06-22T16:15:47;101394.69;;;23.60;48.67
64343;BME280;50675;53.530;-6.312;2023-06-22T16:18:13;101396.19;;;23.75;48.76
64343;BME280;50675;53.530;-6.312;2023-06-22T16:20:41;101400.25;;;23.77;48.86
64343;BME280;50675;53.530;-6.312;2023-06-22T16:23:07;101391.53;;;23.84;48.71
64343;BME280;50675;53.530;-6.312;2023-06-22T16:25:33;101402.13;;;23.60;48.89
64343;BME280;50675;53.530;-6.312;2023-06-22T16:27:58;101397.28;;;23.65;48.89
64343;BME280;50675;53.530;-6.312;2023-06-22T16:30:24;101394.13;;;23.80;48.72
64343;BME280;50675;53.530;-6.312;2023-06-22T16:35:17;101367.53;;;23.53;48.64
64343;BME280;50675;53.530;-6.312;2023-06-22T16:37:43;101397.91;;;23.62;48.70
64343;BME280;50675;53.530;-6.312;2023-06-22T16:40:08;101397.41;;;23.51;48.71
64343;BME280;50675;53.530;-6.312;2023-06-22T16:42:35;101384.63;;;23.64;48.96
64343;BME280;50675;53.530;-6.312;2023-06-22T16:45:01;101384.56;;;23.95;48.76
64343;BME280;50675;53.530;-6.312;2023-06-22T16:47:26;101391.25;;;23.94;48.99
64343;BME280;50675;53.530;-6.312;2023-06-22T16:49:53;101392.19;;;23.89;48.75
64343;BME280;50675;53.530;-6.312;2023-06-22T16:52:19;101393.06;;;24.07;48.89
64343;BME280;50675;53.530;-6.312;2023-06-22T16:54:46;101395.84;;;24.16;48.70
64343;BME280;50675;53.530;-6.312;2023-06-22T16:57:14;101387.19;;;24.00;48.90
64343;BME280;50675;53.530;-6.312;2023-06-22T16:59:40;101383.16;;;24.15;48.59
64343;BME280;50675;53.530;-6.312;2023-06-22T17:02:16;101390.03;;;24.26;49.10
64343;BME280;50675;53.530;-6.312;2023-06-22T17:04:44;101378.03;;;24.22;48.99
64343;BME280;50675;53.530;-6.312;2023-06-22T17:07:15;101384.63;;;24.12;48.73
64343;BME280;50675;53.530;-6.312;2023-06-22T17:09:45;101378.06;;;23.91;48.64
64343;BME280;50675;53.530;-6.312;2023-06-22T17:12:12;101376.50;;;24.07;48.93
64343;BME280;50675;53.530;-6.312;2023-06-22T17:14:39;101373.88;;;23.93;48.71
64343;BME280;50675;53.530;-6.312;2023-06-22T17:17:05;101377.31;;;23.60;48.82
64343;BME280;50675;53.530;-6.312;2023-06-22T17:19:31;101376.97;;;23.30;48.87
64343;BME280;50675;53.530;-6.312;2023-06-22T17:21:57;101380.34;;;23.49;49.15
64343;BME280;50675;53.530;-6.312;2023-06-22T17:24:23;101375.50;;;23.55;48.63
64343;BME280;50675;53.530;-6.312;2023-06-22T17:26:53;101378.53;;;23.45;49.00
64343;BME280;50675;53.530;-6.312;2023-06-22T17:29:19;101373.19;;;23.48;49.03
64343;BME280;50675;53.530;-6.312;2023-06-22T17:31:45;101380.16;;;23.46;48.86
64343;BME280;50675;53.530;-6.312;2023-06-22T17:34:13;101383.16;;;23.36;48.86
64343;BME280;50675;53.530;-6.312;2023-06-22T17:36:48;101383.94;;;23.28;48.89
64343;BME280;50675;53.530;-6.312;2023-06-22T17:39:19;101371.84;;;23.15;48.89
64343;BME280;50675;53.530;-6.312;2023-06-22T17:41:46;101374.72;;;23.10;48.92
64343;BME280;50675;53.530;-6.312;2023-06-22T17:44:21;101383.59;;;22.98;48.96
64343;BME280;50675;53.530;-6.312;2023-06-22T17:46:51;101391.78;;;22.90;48.93
64343;BME280;50675;53.530;-6.312;2023-06-22T17:49:17;101388.28;;;22.76;49.26
64343;BME280;50675;53.530;-6.312;2023-06-22T17:51:44;101383.44;;;22.81;49.21
64343;BME280;50675;53.530;-6.312;2023-06-22T17:54:13;101372.69;;;22.57;49.13
64343;BME280;50675;53.530;-6.312;2023-06-22T17:56:38;101366.41;;;22.43;49.30
64343;BME280;50675;53.530;-6.312;2023-06-22T17:59:05;101369.81;;;22.62;49.45
64343;BME280;50675;53.530;-6.312;2023-06-22T18:01:39;101376.94;;;22.63;49.32
64343;BME280;50675;53.530;-6.312;2023-06-22T18:04:15;101379.72;;;22.63;49.57
64343;BME280;50675;53.530;-6.312;2023-06-22T18:06:42;101373.72;;;22.61;49.64
64343;BME280;50675;53.530;-6.312;2023-06-22T18:09:10;101359.94;;;22.61;49.61
64343;BME280;50675;53.530;-6.312;2023-06-22T18:11:47;101373.63;;;22.53;49.73
64343;BME280;50675;53.530;-6.312;2023-06-22T18:14:14;101388.41;;;22.71;49.59
64343;BME280;50675;53.530;-6.312;2023-06-22T18:16:43;101382.13;;;22.79;49.73
64343;BME280;50675;53.530;-6.312;2023-06-22T18:19:09;101378.56;;;22.78;49.74
64343;BME280;50675;53.530;-6.312;2023-06-22T18:22:29;101366.94;;;22.67;49.91
64343;BME280;50675;53.530;-6.312;2023-06-22T18:25:02;101363.19;;;22.63;49.93
64343;BME280;50675;53.530;-6.312;2023-06-22T18:27:35;101368.91;;;22.31;49.85
64343;BME280;50675;53.530;-6.312;2023-06-22T18:30:10;101374.19;;;22.41;49.95
64343;BME280;50675;53.530;-6.312;2023-06-22T18:32:57;101378.47;;;22.20;49.94
64343;BME280;50675;53.530;-6.312;2023-06-22T18:38:36;101364.84;;;22.15;49.92
64343;BME280;50675;53.530;-6.312;2023-06-22T18:41:23;101365.78;;;21.97;50.21
64343;BME280;50675;53.530;-6.312;2023-06-22T18:43:52;101369.66;;;21.96;50.26